Aviation Digital Data Service (ADDS)

Output produced by METARs form (2041 UTC 27 April 2017)
found at http://aviationweather.gov/adds/metars/
 
KMPV 271720Z 2718/2818 16007KT P6SM OVC028 
     TEMPO 2718/2722 BKN035 
     FM272200 16013KT P6SM BKN035 
     FM280300 17008KT P6SM BKN018 
     FM280600 17009KT P6SM BKN008 
     FM280800 17009KT P6SM VCSH BKN008 
     FM280900 17008KT 4SM -SHRA BR SCT008 BKN018 
     FM281200 19007KT P6SM VCSH BKN020 
     FM281400 25006KT P6SM BKN035